Time;durP1;ratioP1;P1;durP2;ratioP2;P2;SDS_P1;SDS_P2;PMS_P1;PMS_P2;Temp;Humidity;BMP_temperature;BMP_pressure;BME280_temperature;BME280_humidity;BME280_pressure;Samples;Min_cycle;Max_cycle;Signal;HPM_P1;HPM_P2
2021/05/14 00:00:07;;;;;;;1.42;1.33;;;;;;;13.13;68.72;99536.25;5021253;28;20061;-83
2021/05/14 00:02:35;;;;;;;2.50;1.15;;;;;;;13.11;68.79;99533.72;5018618;28;20042;-83
2021/05/14 00:05:03;;;;;;;1.65;1.27;;;;;;;13.07;68.49;99534.03;5016182;28;20121;-84
2021/05/14 00:07:31;;;;;;;1.48;1.20;;;;;;;13.04;68.95;99535.13;5022454;28;20120;-84
2021/05/14 00:09:58;;;;;;;1.20;1.10;;;;;;;13.02;69.04;99528.22;5033971;28;20162;-83
2021/05/14 00:12:25;;;;;;;2.15;1.20;;;;;;;13.03;69.00;99532.56;5022377;28;20081;-84
2021/05/14 00:14:51;;;;;;;1.42;1.13;;;;;;;13.02;69.07;99530.88;5019521;28;20065;-84
2021/05/14 00:17:18;;;;;;;1.58;1.33;;;;;;;12.93;69.14;99516.41;5024719;28;20494;-83
2021/05/14 00:19:45;;;;;;;1.90;1.20;;;;;;;12.97;68.90;99533.84;5012232;28;20069;-83
2021/05/14 00:22:13;;;;;;;1.77;1.17;;;;;;;12.88;69.19;99530.03;5020071;28;20050;-84
2021/05/14 00:24:40;;;;;;;2.17;1.30;;;;;;;12.89;69.20;99531.72;5020616;28;20081;-83
2021/05/14 00:27:07;;;;;;;2.08;1.20;;;;;;;12.75;69.28;99505.25;5023912;28;20092;-84
2021/05/14 00:29:35;;;;;;;1.80;1.20;;;;;;;12.78;69.68;99530.75;5028435;28;20175;-82
2021/05/14 00:32:02;;;;;;;1.52;1.25;;;;;;;12.71;69.49;99522.38;5034306;28;20050;-83
2021/05/14 00:34:30;;;;;;;1.58;1.20;;;;;;;12.73;69.63;99516.97;5029752;28;20113;-83
2021/05/14 00:36:56;;;;;;;2.65;1.30;;;;;;;12.71;70.09;99521.53;5029846;28;20066;-84
2021/05/14 00:39:23;;;;;;;1.40;1.02;;;;;;;12.68;69.74;99527.91;5031962;28;20113;-84
2021/05/14 00:41:53;;;;;;;1.73;1.20;;;;;;;12.67;70.54;99520.88;5018901;28;20038;-83
2021/05/14 00:44:35;;;;;;;1.42;1.23;;;;;;;12.67;70.48;99526.19;5009055;28;20042;-83
2021/05/14 00:47:04;;;;;;;1.50;1.13;;;;;;;12.65;70.46;99515.69;5017629;28;20137;-84
2021/05/14 00:49:33;;;;;;;1.45;1.35;;;;;;;12.65;70.37;99513.03;5015391;28;20197;-84
2021/05/14 00:52:02;;;;;;;1.95;1.50;;;;;;;12.56;70.28;99499.53;5017630;28;20046;-83
2021/05/14 00:54:30;;;;;;;1.40;1.30;;;;;;;12.63;70.53;99514.09;5028140;28;20053;-83
2021/05/14 00:56:58;;;;;;;6.15;1.55;;;;;;;12.60;70.21;99516.94;5030888;28;20057;-84
2021/05/14 00:59:26;;;;;;;2.08;1.25;;;;;;;12.60;70.20;99520.44;5031936;28;20061;-83
2021/05/14 01:01:54;;;;;;;2.65;1.15;;;;;;;12.60;70.24;99519.59;5030872;28;20148;-83
2021/05/14 01:04:23;;;;;;;1.45;1.30;;;;;;;12.56;70.32;99518.13;5029053;28;20050;-84
2021/05/14 01:06:50;;;;;;;4.03;1.30;;;;;;;12.54;70.21;99514.72;5018262;28;20084;-84
2021/05/14 01:09:17;;;;;;;2.03;1.45;;;;;;;12.54;70.59;99520.91;5014568;28;20504;-84
2021/05/14 01:11:44;;;;;;;1.65;1.30;;;;;;;12.48;70.50;99515.13;5014402;28;20057;-84
2021/05/14 01:14:11;;;;;;;1.55;1.45;;;;;;;12.52;70.53;99525.47;5019812;28;20045;-84
2021/05/14 01:16:38;;;;;;;2.50;1.50;;;;;;;12.53;70.47;99523.66;5016261;28;20084;-83
2021/05/14 01:19:07;;;;;;;2.28;1.60;;;;;;;12.48;70.89;99525.75;5026243;28;20042;-82
2021/05/14 01:21:35;;;;;;;2.05;1.40;;;;;;;12.47;71.04;99529.38;5038055;28;20104;-83
2021/05/14 01:27:50;;;;;;;2.35;1.40;;;;;;;12.44;70.63;99524.25;5032690;28;20130;-83
2021/05/14 01:30:17;;;;;;;2.75;1.70;;;;;;;12.47;70.53;99516.94;5025057;28;20171;-82
2021/05/14 01:32:44;;;;;;;2.92;1.70;;;;;;;12.40;70.89;99501.56;5025592;28;20090;-83
2021/05/14 01:35:12;;;;;;;2.40;1.40;;;;;;;12.48;70.60;99523.09;5021150;28;20121;-83
2021/05/14 01:37:40;;;;;;;2.72;1.50;;;;;;;12.48;70.47;99520.44;5012853;28;20065;-83
2021/05/14 01:40:08;;;;;;;1.65;1.48;;;;;;;12.50;70.73;99523.84;5015962;28;20060;-84
2021/05/14 01:42:35;;;;;;;2.15;1.50;;;;;;;12.50;70.36;99522.06;5015858;28;20505;-84
2021/05/14 01:45:07;;;;;;;1.65;1.40;;;;;;;12.45;70.80;99523.31;5009372;28;20171;-83
2021/05/14 01:47:34;;;;;;;1.80;1.27;;;;;;;12.40;70.63;99530.75;5021903;28;20102;-83
2021/05/14 01:50:01;;;;;;;3.55;1.40;;;;;;;12.37;71.13;99515.03;5017384;28;20060;-85
2021/05/14 01:52:28;;;;;;;2.28;1.30;;;;;;;12.37;70.55;99517.69;5015098;28;20084;-85
2021/05/14 01:54:54;;;;;;;1.58;1.48;;;;;;;12.36;70.91;99521.28;5019264;28;20060;-84
2021/05/14 01:57:21;;;;;;;1.90;1.40;;;;;;;12.34;71.15;99517.91;5018145;28;20050;-83
2021/05/14 01:59:48;;;;;;;2.28;1.70;;;;;;;12.37;70.66;99517.69;5022370;28;20050;-83
2021/05/14 02:02:18;;;;;;;2.50;1.40;;;;;;;12.34;70.66;99521.41;5029906;28;20049;-82
2021/05/14 02:04:45;;;;;;;2.10;1.27;;;;;;;12.29;70.57;99513.75;5026434;28;20077;-83
2021/05/14 02:07:12;;;;;;;2.38;1.60;;;;;;;12.30;70.89;99522.56;5030608;28;20052;-83
2021/05/14 02:09:39;;;;;;;1.70;1.30;;;;;;;12.29;71.03;99524.34;5028107;28;20045;-83
2021/05/14 02:12:07;;;;;;;1.60;1.48;;;;;;;12.22;70.79;99504.50;5024384;28;20125;-85
2021/05/14 02:14:34;;;;;;;2.13;1.30;;;;;;;12.34;70.94;99521.41;5029178;28;20121;-84
2021/05/14 02:17:01;;;;;;;1.63;1.33;;;;;;;12.37;70.99;99515.88;5032109;28;20042;-83
2021/05/14 02:19:28;;;;;;;1.40;1.30;;;;;;;12.33;70.67;99511.72;5029059;28;20050;-84
2021/05/14 02:21:56;;;;;;;3.05;1.48;;;;;;;12.35;70.76;99511.63;5026006;28;20105;-84
2021/05/14 02:24:24;;;;;;;3.25;1.50;;;;;;;12.33;70.22;99505.56;5028116;28;20053;-84
2021/05/14 02:26:50;;;;;;;1.63;1.20;;;;;;;12.34;70.54;99515.25;5021833;28;20108;-83
2021/05/14 02:29:17;;;;;;;2.83;1.38;;;;;;;12.23;70.25;99508.00;5011242;28;20085;-83
2021/05/14 02:31:45;;;;;;;1.70;1.40;;;;;;;12.18;70.42;99508.31;5011958;28;20122;-84
2021/05/14 02:34:12;;;;;;;1.92;1.30;;;;;;;12.23;70.38;99514.16;5018539;28;20069;-84
2021/05/14 02:36:39;;;;;;;2.08;1.33;;;;;;;12.23;70.42;99519.47;5012017;28;20056;-83
2021/05/14 02:39:08;;;;;;;2.00;1.35;;;;;;;12.16;70.08;99514.69;5013293;28;20496;-83
2021/05/14 02:41:38;;;;;;;2.17;1.30;;;;;;;12.17;70.00;99517.22;5013221;28;20046;-84
2021/05/14 02:44:06;;;;;;;2.03;1.33;;;;;;;12.20;70.36;99517.03;5014721;28;20427;-85
2021/05/14 02:46:36;;;;;;;1.27;1.00;;;;;;;12.21;69.95;99521.38;5013127;28;20483;-84
2021/05/14 02:49:04;;;;;;;2.05;1.02;;;;;;;12.21;70.33;99518.72;5016630;28;20092;-84
2021/05/14 02:51:32;;;;;;;3.80;1.40;;;;;;;12.19;70.19;99519.78;5019449;28;20099;-84
2021/05/14 02:53:58;;;;;;;2.72;1.70;;;;;;;12.13;70.24;99518.38;5014732;28;20137;-84
2021/05/14 02:56:28;;;;;;;2.72;1.40;;;;;;;12.10;70.47;99513.31;5019263;28;20073;-83
2021/05/14 02:58:55;;;;;;;1.27;1.00;;;;;;;12.05;70.16;99512.75;5018820;28;20077;-84
2021/05/14 03:01:23;;;;;;;1.20;1.10;;;;;;;12.05;70.17;99517.22;5020787;28;20046;-84
2021/05/14 03:03:52;;;;;;;1.42;1.13;;;;;;;12.02;70.42;99522.72;5013848;28;20072;-84
2021/05/14 03:06:21;;;;;;;2.05;1.33;;;;;;;11.98;71.24;99516.75;5005143;28;20053;-85
2021/05/14 03:08:47;;;;;;;1.60;1.40;;;;;;;11.96;70.03;99518.69;5026456;28;20050;-85
2021/05/14 03:11:15;;;;;;;2.95;1.27;;;;;;;11.88;70.44;99519.19;5021223;28;20114;-86
2021/05/14 03:13:42;;;;;;;1.13;1.00;;;;;;;11.84;70.26;99508.88;5026871;28;20080;-84
2021/05/14 03:16:09;;;;;;;1.90;1.10;;;;;;;11.80;70.35;99524.16;5021452;28;20507;-85
2021/05/14 03:18:36;;;;;;;1.42;0.82;;;;;;;11.77;70.62;99532.31;5030485;28;20049;-85
2021/05/14 03:21:03;;;;;;;1.92;1.00;;;;;;;11.76;70.51;99533.25;5031494;28;20038;-84
2021/05/14 03:23:29;;;;;;;2.92;1.30;;;;;;;11.67;71.16;99527.66;5029492;28;20038;-84
2021/05/14 03:25:57;;;;;;;1.10;1.00;;;;;;;11.67;70.87;99517.03;5029054;28;20105;-83
2021/05/14 03:28:25;;;;;;;2.08;1.30;;;;;;;11.70;71.01;99538.06;5032505;28;20073;-83
2021/05/14 03:30:52;;;;;;;1.55;1.08;;;;;;;11.64;71.27;99525.22;5034611;28;20065;-83
2021/05/14 03:33:20;;;;;;;1.65;1.13;;;;;;;11.66;71.41;99525.94;5024398;28;20054;-84
2021/05/14 03:35:53;;;;;;;1.77;1.20;;;;;;;11.64;71.21;99527.88;5021712;28;20064;-83
2021/05/14 03:38:29;;;;;;;1.73;1.15;;;;;;;11.57;71.23;99520.31;5010475;28;20111;-84
2021/05/14 03:40:55;;;;;;;1.40;1.10;;;;;;;11.62;71.01;99522.66;5027371;28;20045;-82
2021/05/14 03:43:22;;;;;;;5.00;1.33;;;;;;;11.56;71.26;99523.91;5030832;28;20050;-84
2021/05/14 03:45:49;;;;;;;1.17;1.05;;;;;;;11.54;71.64;99530.25;5025074;28;20049;-84
2021/05/14 03:48:19;;;;;;;1.30;1.20;;;;;;;11.50;71.29;99528.75;5017881;28;20152;-84
2021/05/14 03:50:48;;;;;;;2.25;1.35;;;;;;;11.50;70.84;99531.38;5017569;28;20047;-82
2021/05/14 03:53:14;;;;;;;1.05;0.90;;;;;;;11.49;71.43;99535.03;5029811;28;20105;-85
2021/05/14 03:55:41;;;;;;;1.88;1.10;;;;;;;11.46;70.72;99528.13;5032789;28;20069;-84
2021/05/14 03:58:08;;;;;;;1.20;1.10;;;;;;;11.44;70.39;99527.34;5029014;28;20053;-84
2021/05/14 04:00:35;;;;;;;2.28;1.38;;;;;;;11.43;70.65;99527.44;5028790;28;20049;-85
2021/05/14 04:03:01;;;;;;;1.92;1.23;;;;;;;11.44;70.44;99531.81;5017298;28;20105;-84
2021/05/14 04:05:28;;;;;;;3.17;1.42;;;;;;;11.39;70.71;99526.78;5036801;28;20105;-84
2021/05/14 04:07:58;;;;;;;1.58;1.40;;;;;;;11.39;70.88;99529.44;5032401;28;20061;-85
2021/05/14 04:16:07;;;;;;;3.30;1.65;;;;;;;11.25;71.58;99542.72;4990530;28;20077;-83
2021/05/14 04:18:38;;;;;;;1.65;1.52;;;;;;;11.22;71.26;99534.97;4978551;28;20062;-82
2021/05/14 04:21:06;;;;;;;1.67;1.58;;;;;;;11.20;71.56;99540.34;5005351;28;20038;-84
2021/05/14 04:23:34;;;;;;;1.70;1.40;;;;;;;11.16;71.41;99540.66;5011101;28;20029;-84
2021/05/14 04:26:02;;;;;;;2.95;1.80;;;;;;;11.09;71.98;99545.47;5030374;28;20070;-85
2021/05/14 04:28:28;;;;;;;1.85;1.60;;;;;;;11.07;72.46;99543.88;5026008;28;20066;-84
2021/05/14 04:30:55;;;;;;;2.53;1.60;;;;;;;11.07;72.12;99534.13;5017158;28;20145;-85
2021/05/14 04:33:22;;;;;;;1.58;1.45;;;;;;;11.10;72.07;99539.25;5011095;28;20046;-85
2021/05/14 04:35:49;;;;;;;2.17;1.60;;;;;;;11.09;71.53;99529.59;5026604;28;20100;-85
2021/05/14 04:38:22;;;;;;;2.60;1.48;;;;;;;11.22;71.03;99545.56;5029377;28;20117;-85
2021/05/14 04:41:02;;;;;;;2.22;1.60;;;;;;;11.29;70.75;99544.25;5027831;28;20054;-84
2021/05/14 04:43:30;;;;;;;3.58;1.90;;;;;;;11.37;70.57;99546.38;5029638;28;20053;-84
2021/05/14 04:45:56;;;;;;;2.33;1.70;;;;;;;11.43;69.90;99548.66;5026982;28;20107;-85
2021/05/14 04:48:23;;;;;;;5.35;2.00;;;;;;;11.47;70.29;99556.31;5031712;28;20050;-85
2021/05/14 04:50:50;;;;;;;3.85;1.77;;;;;;;11.52;69.72;99553.34;5008529;28;20057;-85
2021/05/14 04:53:18;;;;;;;3.65;1.77;;;;;;;11.48;69.64;99557.19;5027989;28;20085;-85
2021/05/14 04:55:46;;;;;;;3.30;1.73;;;;;;;11.48;69.69;99551.88;5031501;28;20061;-86
2021/05/14 04:58:13;;;;;;;2.33;1.58;;;;;;;11.43;70.04;99560.13;5023205;28;20054;-85
2021/05/14 05:00:42;;;;;;;1.77;1.67;;;;;;;11.26;70.21;99541.78;5021608;28;20048;-85
2021/05/14 05:03:09;;;;;;;2.00;1.80;;;;;;;11.28;70.38;99546.97;5022869;28;20421;-85
2021/05/14 05:05:37;;;;;;;2.75;1.83;;;;;;;11.41;70.71;99559.34;5021593;28;20078;-85
2021/05/14 05:08:04;;;;;;;1.83;1.70;;;;;;;11.40;70.52;99565.59;5025760;28;20069;-85
2021/05/14 05:10:31;;;;;;;4.30;1.95;;;;;;;11.35;71.15;99572.13;5018434;28;20060;-85
2021/05/14 05:12:59;;;;;;;3.53;2.10;;;;;;;11.30;71.36;99568.94;5027320;28;20042;-85
2021/05/14 05:15:25;;;;;;;3.38;2.30;;;;;;;11.29;71.62;99567.25;5026873;28;20106;-85
2021/05/14 05:17:53;;;;;;;4.00;1.80;;;;;;;11.40;70.80;99573.56;5027433;28;20437;-85
2021/05/14 05:20:20;;;;;;;2.25;1.75;;;;;;;11.38;71.53;99570.16;5031282;28;20041;-83
2021/05/14 05:22:46;;;;;;;3.53;2.35;;;;;;;11.40;70.69;99557.66;5031485;28;20080;-84
2021/05/14 05:25:13;;;;;;;2.33;1.75;;;;;;;11.55;70.74;99569.06;5030293;28;20060;-84
2021/05/14 05:27:41;;;;;;;2.35;1.90;;;;;;;11.57;69.73;99576.00;5030559;28;20536;-85
2021/05/14 05:30:09;;;;;;;2.45;1.90;;;;;;;11.59;69.88;99583.84;5027343;28;20045;-86
2021/05/14 05:32:36;;;;;;;3.47;2.00;;;;;;;11.73;69.81;99582.97;5028487;28;20151;-85
2021/05/14 05:35:03;;;;;;;3.80;1.73;;;;;;;11.92;67.95;99576.41;5026830;28;20030;-84
2021/05/14 05:37:30;;;;;;;2.15;1.85;;;;;;;12.08;67.95;99581.56;5029560;28;20053;-84
2021/05/14 05:39:57;;;;;;;3.90;1.60;;;;;;;12.27;66.67;99576.72;5032002;28;20101;-84
2021/05/14 05:42:24;;;;;;;2.33;1.95;;;;;;;12.40;66.05;99571.44;5026850;28;20050;-84
2021/05/14 05:44:51;;;;;;;4.50;1.70;;;;;;;12.54;64.91;99583.78;5038292;28;20317;-84
2021/05/14 05:47:18;;;;;;;2.13;1.70;;;;;;;12.53;65.24;99576.75;5029620;28;20069;-84
2021/05/14 05:49:45;;;;;;;3.67;1.80;;;;;;;12.55;65.59;99589.00;5029793;28;20045;-84
2021/05/14 05:52:11;;;;;;;1.83;1.27;;;;;;;12.73;64.35;99580.72;5025692;28;20048;-84
2021/05/14 05:54:38;;;;;;;2.13;1.58;;;;;;;13.06;63.32;99588.16;5025847;28;20105;-83
2021/05/14 05:57:05;;;;;;;2.63;1.42;;;;;;;13.48;62.07;99590.47;5025850;28;20050;-84
2021/05/14 05:59:35;;;;;;;1.65;1.27;;;;;;;13.92;59.99;99597.03;5026745;28;20117;-84
2021/05/14 06:02:04;;;;;;;3.15;1.27;;;;;;;14.33;57.88;99588.63;5029572;28;20109;-85
2021/05/14 06:04:34;;;;;;;1.30;1.10;;;;;;;14.54;57.68;99591.53;5027816;28;20034;-85
2021/05/14 06:07:01;;;;;;;2.50;1.20;;;;;;;14.64;56.45;99596.03;5030480;28;20036;-84
2021/05/14 06:09:28;;;;;;;3.97;1.25;;;;;;;14.59;56.74;99597.38;5030127;28;20045;-85
2021/05/14 06:11:54;;;;;;;1.20;1.10;;;;;;;14.51;57.10;99589.94;5031404;28;20085;-84
2021/05/14 06:14:22;;;;;;;2.22;1.10;;;;;;;14.51;56.51;99599.75;5015959;28;20060;-82
2021/05/14 06:16:49;;;;;;;3.33;1.40;;;;;;;14.36;57.88;99599.06;5030882;28;20101;-84
2021/05/14 06:19:25;;;;;;;3.72;1.75;;;;;;;14.27;56.77;99600.59;5026102;28;20493;-84
2021/05/14 06:21:52;;;;;;;2.80;1.50;;;;;;;14.25;56.80;99604.34;5033930;28;20421;-85
2021/05/14 06:24:22;;;;;;;2.35;1.30;;;;;;;14.21;57.13;99598.38;5013488;28;20050;-85
2021/05/14 06:26:49;;;;;;;1.83;1.42;;;;;;;14.20;56.87;99602.00;4999115;28;20133;-82
2021/05/14 06:29:19;;;;;;;3.15;1.20;;;;;;;14.13;57.31;99606.13;5014541;28;21473;-84
2021/05/14 06:31:45;;;;;;;5.82;1.52;;;;;;;14.13;57.94;99605.25;5012667;28;20061;-84
2021/05/14 06:34:12;;;;;;;2.75;1.60;;;;;;;14.51;57.63;99602.41;5019308;28;20050;-85
2021/05/14 06:36:39;;;;;;;3.33;1.30;;;;;;;14.83;56.03;99598.13;5010987;28;20123;-84
2021/05/14 06:39:06;;;;;;;1.63;1.50;;;;;;;14.82;55.71;99607.09;5013162;28;20193;-84
2021/05/14 06:41:36;;;;;;;3.20;1.45;;;;;;;14.80;55.57;99609.03;5016416;28;20054;-84
2021/05/14 06:44:05;;;;;;;2.58;1.65;;;;;;;14.74;56.01;99612.19;5006859;28;20077;-84
2021/05/14 06:46:32;;;;;;;1.88;1.23;;;;;;;14.74;55.82;99594.38;5016870;28;20394;-84
2021/05/14 06:49:02;;;;;;;3.13;1.23;;;;;;;14.90;55.26;99603.84;4997313;28;20129;-84
2021/05/14 06:51:29;;;;;;;1.63;1.10;;;;;;;15.00;55.00;99610.16;5015339;28;20126;-84
2021/05/14 06:53:56;;;;;;;3.45;1.30;;;;;;;15.31;55.14;99612.13;5023902;28;20046;-83
2021/05/14 06:56:22;;;;;;;1.45;1.20;;;;;;;15.34;54.75;99611.03;5025944;28;20057;-81
2021/05/14 06:58:53;;;;;;;1.30;1.20;;;;;;;15.43;54.86;99627.16;5028366;28;20080;-83
2021/05/14 07:01:31;;;;;;;2.42;1.23;;;;;;;15.48;55.28;99613.47;5026271;28;20050;-82
2021/05/14 07:03:58;;;;;;;2.13;1.50;;;;;;;15.92;52.60;99612.59;5015623;28;20060;-84
2021/05/14 07:06:25;;;;;;;4.55;1.15;;;;;;;16.11;52.71;99602.09;4992941;28;20050;-84
2021/05/14 07:08:53;;;;;;;1.52;1.23;;;;;;;16.59;51.21;99614.19;5015002;28;20133;-84
2021/05/14 07:11:20;;;;;;;3.38;1.15;;;;;;;16.74;50.72;99610.25;5016164;28;20046;-84
2021/05/14 07:13:47;;;;;;;2.42;1.23;;;;;;;16.96;50.79;99619.97;5025758;28;20042;-84
2021/05/14 07:16:14;;;;;;;1.77;1.20;;;;;;;17.29;49.22;99605.50;5018500;28;20493;-84
2021/05/14 07:18:41;;;;;;;3.22;1.10;;;;;;;17.68;48.46;99615.41;5016802;28;20129;-84
2021/05/14 07:21:08;;;;;;;2.13;1.40;;;;;;;18.30;48.09;99622.28;5011798;28;20232;-84
2021/05/14 07:23:53;;;;;;;1.35;1.00;;;;;;;19.20;45.40;99617.44;5027401;28;20084;-84
2021/05/14 07:26:21;;;;;;;3.70;1.40;;;;;;;20.00;44.26;99615.13;5026200;28;20054;-83
2021/05/14 07:28:48;;;;;;;2.63;1.00;;;;;;;20.13;42.52;99623.69;5015450;28;20054;-84
2021/05/14 07:31:15;;;;;;;3.42;1.20;;;;;;;19.84;43.14;99624.69;5013665;28;20100;-84
2021/05/14 07:33:45;;;;;;;1.33;1.05;;;;;;;19.41;43.36;99625.28;5015484;28;20041;-84
2021/05/14 07:36:12;;;;;;;1.27;1.17;;;;;;;19.01;44.12;99625.56;5017145;28;20076;-84
2021/05/14 07:38:39;;;;;;;2.60;1.15;;;;;;;18.98;44.93;99630.34;4997692;28;20049;-84
2021/05/14 07:41:08;;;;;;;3.08;0.82;;;;;;;18.91;45.36;99633.59;5014977;28;20113;-84
2021/05/14 07:43:35;;;;;;;2.15;1.30;;;;;;;18.64;46.09;99633.50;5014658;28;20045;-84
2021/05/14 07:46:03;;;;;;;1.55;1.17;;;;;;;18.47;46.38;99631.47;5015163;28;20132;-85
2021/05/14 07:48:30;;;;;;;1.95;1.20;;;;;;;18.38;46.70;99617.09;5015056;28;20069;-84
2021/05/14 07:50:58;;;;;;;2.72;1.17;;;;;;;18.36;46.94;99634.31;5016515;28;20049;-84
2021/05/14 07:53:25;;;;;;;3.10;1.08;;;;;;;17.98;47.39;99627.88;5019403;28;20038;-83
2021/05/14 07:55:52;;;;;;;1.67;1.00;;;;;;;17.69;47.99;99632.31;5030867;28;20109;-83
2021/05/14 07:58:20;;;;;;;2.25;1.20;;;;;;;17.52;49.50;99631.09;5014233;28;20053;-83
2021/05/14 08:00:50;;;;;;;1.63;1.30;;;;;;;17.53;49.32;99630.97;5027843;28;20148;-83
2021/05/14 08:03:17;;;;;;;1.40;1.17;;;;;;;17.55;48.97;99641.53;5030539;28;20042;-82
2021/05/14 08:05:46;;;;;;;1.90;1.30;;;;;;;17.76;49.43;99637.00;5032251;28;20053;-82
2021/05/14 08:08:18;;;;;;;3.25;1.38;;;;;;;17.85;48.79;99633.50;5031727;28;20062;-83
2021/05/14 08:10:47;;;;;;;1.95;1.45;;;;;;;17.89;48.68;99644.78;5014167;28;20041;-83
2021/05/14 08:13:25;;;;;;;1.73;1.25;;;;;;;17.99;48.65;99642.13;5030623;28;20048;-83
2021/05/14 08:15:52;;;;;;;2.05;1.10;;;;;;;18.06;47.71;99643.28;5030870;28;20045;-83
2021/05/14 08:18:21;;;;;;;1.73;1.10;;;;;;;17.95;48.22;99638.03;5025272;28;20083;-84
2021/05/14 08:20:50;;;;;;;2.35;1.38;;;;;;;17.91;48.31;99640.16;5024282;28;20049;-84
2021/05/14 08:23:20;;;;;;;1.60;1.40;;;;;;;17.85;46.74;99640.69;5029598;28;20077;-83
2021/05/14 08:25:49;;;;;;;2.33;1.20;;;;;;;17.83;47.49;99639.97;5030150;28;20076;-85
2021/05/14 08:28:17;;;;;;;3.33;1.10;;;;;;;17.99;47.33;99639.44;5013755;28;20052;-82
2021/05/14 08:30:45;;;;;;;3.70;1.17;;;;;;;18.44;47.09;99632.59;5025158;28;20141;-83
2021/05/14 08:33:12;;;;;;;1.50;1.00;;;;;;;19.01;45.49;99636.28;5016777;28;20049;-82
2021/05/14 08:35:41;;;;;;;2.03;1.05;;;;;;;19.60;45.28;99636.00;5017178;28;20060;-84
2021/05/14 08:38:10;;;;;;;1.77;1.17;;;;;;;19.78;42.97;99624.47;5017815;28;20475;-84
2021/05/14 08:40:39;;;;;;;4.07;1.10;;;;;;;19.68;42.58;99616.44;5024545;28;20120;-84
2021/05/14 08:43:11;;;;;;;1.17;1.10;;;;;;;19.64;42.29;99624.97;5025407;28;20048;-83
2021/05/14 08:45:38;;;;;;;2.15;0.93;;;;;;;19.57;43.09;99632.75;5020268;28;20109;-82
2021/05/14 08:48:12;;;;;;;1.13;1.00;;;;;;;19.42;42.50;99618.06;5005803;28;20041;-84
2021/05/14 08:50:41;;;;;;;8.45;1.15;;;;;;;19.18;42.65;99632.00;5023140;28;20045;-85
2021/05/14 08:53:27;;;;;;;1.73;1.00;;;;;;;19.27;43.63;99615.88;5006537;28;20042;-83
2021/05/14 08:55:56;;;;;;;3.10;1.92;;;;;;;19.53;43.33;99620.59;4999058;28;20073;-82
2021/05/14 08:58:23;;;;;;;1.88;1.10;;;;;;;19.86;42.31;99621.84;5024103;28;20080;-83
2021/05/14 09:00:56;;;;;;;1.83;1.58;;;;;;;20.00;41.26;99610.59;5015992;28;20081;-84
2021/05/14 09:03:25;;;;;;;3.65;1.33;;;;;;;19.98;41.44;99617.16;5021835;28;20044;-83
2021/05/14 09:05:53;;;;;;;2.25;1.30;;;;;;;20.11;41.33;99613.09;5031441;28;20030;-85
2021/05/14 09:08:27;;;;;;;1.45;0.88;;;;;;;20.21;41.78;99613.00;5036326;28;20061;-84
2021/05/14 09:10:54;;;;;;;1.45;0.85;;;;;;;19.96;41.26;99593.94;5033440;28;20054;-85
2021/05/14 09:13:21;;;;;;;1.85;0.93;;;;;;;19.79;42.59;99615.41;5009658;28;20066;-80
2021/05/14 09:15:48;;;;;;;1.42;1.00;;;;;;;19.90;42.58;99620.56;5016497;28;20502;-84
2021/05/14 09:18:22;;;;;;;2.08;0.95;;;;;;;19.88;41.91;99622.56;5016763;28;20057;-82
2021/05/14 09:21:00;;;;;;;1.67;1.00;;;;;;;19.61;43.28;99618.03;4996200;28;20068;-80
2021/05/14 09:23:35;;;;;;;2.00;0.90;;;;;;;19.50;43.08;99615.56;5013816;28;20065;-80
2021/05/14 09:26:01;;;;;;;1.67;0.70;;;;;;;19.40;42.77;99617.38;5012498;28;20500;-77
2021/05/14 09:28:41;;;;;;;1.60;0.70;;;;;;;19.16;44.56;99609.84;5013804;28;20139;-79
2021/05/14 09:31:17;;;;;;;1.08;0.85;;;;;;;19.01;45.61;99612.13;5011668;28;20076;-79
2021/05/14 09:34:06;;;;;;;1.88;0.73;;;;;;;18.95;45.25;99620.75;5007102;28;20109;-78
2021/05/14 09:36:35;;;;;;;4.35;1.23;;;;;;;18.76;45.45;99615.41;5016042;28;20056;-79
2021/05/14 09:39:09;;;;;;;1.30;0.77;;;;;;;18.66;45.41;99609.22;5017715;28;20073;-78
2021/05/14 09:41:42;;;;;;;0.82;0.50;;;;;;;18.81;45.57;99608.63;5016450;28;20114;-79
2021/05/14 09:44:14;;;;;;;1.67;0.55;;;;;;;18.95;45.60;99615.38;5017739;28;20045;-79
2021/05/14 09:46:58;;;;;;;2.42;0.82;;;;;;;19.10;44.17;99594.31;5010622;28;20078;-78
2021/05/14 09:49:28;;;;;;;3.10;0.60;;;;;;;19.17;43.22;99612.38;5008824;28;20054;-77
2021/05/14 09:51:58;;;;;;;0.65;0.50;;;;;;;19.21;43.19;99600.34;5005954;28;20042;-77
2021/05/14 09:54:37;;;;;;;0.98;0.30;;;;;;;19.15;41.26;99597.41;5005894;28;20571;-78
2021/05/14 09:59:58;;;;;;;1.20;0.95;;;;;;;19.02;41.79;99597.72;5013232;28;20054;-78
2021/05/14 10:02:34;;;;;;;2.63;0.55;;;;;;;19.11;42.14;99593.31;4995091;28;20054;-77
2021/05/14 10:05:14;;;;;;;1.60;0.82;;;;;;;19.14;41.24;99596.56;5010559;28;20044;-78
2021/05/14 10:07:42;;;;;;;1.27;0.70;;;;;;;19.21;42.07;99589.59;4988419;28;20046;-78
2021/05/14 10:10:11;;;;;;;0.70;0.60;;;;;;;19.45;42.28;99588.25;5009068;28;20141;-76
2021/05/14 10:12:38;;;;;;;0.80;0.52;;;;;;;19.86;42.23;99585.09;5006706;28;20814;-78
2021/05/14 10:15:10;;;;;;;1.42;0.95;;;;;;;20.28;39.78;99579.16;5007441;28;20086;-76
2021/05/14 10:17:39;;;;;;;3.05;0.90;;;;;;;20.56;39.19;99588.84;5008881;28;20478;-76
2021/05/14 10:20:13;;;;;;;2.05;0.80;;;;;;;20.51;39.25;99584.94;5007557;28;20417;-76
2021/05/14 10:22:41;;;;;;;5.47;1.00;;;;;;;20.47;39.34;99584.38;5002982;28;20077;-77
2021/05/14 10:25:08;;;;;;;2.15;0.70;;;;;;;20.55;39.64;99584.47;5009493;28;20073;-77
2021/05/14 10:27:44;;;;;;;4.35;1.00;;;;;;;20.77;40.45;99587.69;5006639;28;20577;-77
2021/05/14 10:30:12;;;;;;;3.88;0.73;;;;;;;21.07;40.05;99587.22;5005039;28;20637;-77
2021/05/14 10:32:46;;;;;;;0.95;0.65;;;;;;;21.37;38.81;99580.53;5004722;28;20042;-76
2021/05/14 10:35:27;;;;;;;4.40;0.98;;;;;;;21.33;38.35;99576.44;5007511;28;20096;-77
2021/05/14 10:37:56;;;;;;;2.08;0.50;;;;;;;20.92;38.75;99580.72;5023870;28;20080;-79
2021/05/14 10:40:33;;;;;;;1.45;0.50;;;;;;;20.66;39.45;99586.91;5008952;28;20041;-79
2021/05/14 10:43:05;;;;;;;3.22;1.35;;;;;;;20.65;38.75;99585.22;5027974;28;20060;-79
2021/05/14 10:45:58;;;;;;;1.42;0.60;;;;;;;20.51;38.62;99575.00;5026322;28;20056;-79
2021/05/14 10:48:26;;;;;;;1.60;0.73;;;;;;;20.41;39.48;99578.78;5018806;28;20061;-79
2021/05/14 10:50:56;;;;;;;1.55;0.70;;;;;;;20.33;39.35;99584.91;5011292;28;20050;-79
2021/05/14 10:53:31;;;;;;;1.10;0.60;;;;;;;20.34;40.23;99583.91;5012172;28;20078;-78
2021/05/14 10:56:11;;;;;;;1.58;0.57;;;;;;;20.58;40.50;99581.47;5005864;28;20049;-78
2021/05/14 10:58:51;;;;;;;2.67;0.60;;;;;;;20.65;39.28;99587.06;5008425;28;20520;-78
2021/05/14 11:01:38;;;;;;;0.52;0.47;;;;;;;20.60;38.99;99590.25;5003894;28;20188;-78
2021/05/14 11:04:10;;;;;;;0.75;0.50;;;;;;;20.58;39.22;99586.84;5008327;28;20388;-78
2021/05/14 11:06:43;;;;;;;1.80;0.60;;;;;;;20.61;38.41;99583.00;5011754;28;20041;-78
2021/05/14 11:09:12;;;;;;;0.60;0.50;;;;;;;20.68;38.20;99578.69;5014157;28;20057;-78
2021/05/14 11:11:59;;;;;;;1.13;0.60;;;;;;;20.82;38.84;99583.50;5015982;28;20784;-77
2021/05/14 11:14:45;;;;;;;0.65;0.30;;;;;;;21.01;38.38;99582.44;5008550;28;20136;-78
2021/05/14 11:17:16;;;;;;;1.30;0.60;;;;;;;21.11;38.86;99583.19;5004286;28;20049;-77
2021/05/14 11:19:47;;;;;;;1.90;0.98;;;;;;;21.29;38.34;99584.00;5003547;28;20139;-78
2021/05/14 11:22:25;;;;;;;0.60;0.40;;;;;;;21.47;36.91;99583.94;5018286;28;20459;-78
2021/05/14 11:25:13;;;;;;;5.28;0.65;;;;;;;21.37;36.56;99572.44;4997163;28;20401;-77
2021/05/14 11:27:45;;;;;;;2.17;0.45;;;;;;;20.72;36.98;99573.84;5010439;28;20050;-77
2021/05/14 11:30:14;;;;;;;1.50;0.60;;;;;;;20.70;38.97;99575.84;5011987;28;20121;-77
2021/05/14 11:32:45;;;;;;;1.15;0.50;;;;;;;20.26;37.54;99557.78;5016331;28;20050;-77
2021/05/14 11:35:15;;;;;;;0.82;0.45;;;;;;;20.19;38.72;99575.53;5012634;28;20073;-77
2021/05/14 11:37:42;;;;;;;1.43;0.50;;;;;;;20.17;39.65;99577.53;5014251;28;20046;-77
2021/05/14 11:40:14;;;;;;;2.13;0.40;;;;;;;20.17;39.52;99564.06;5013592;28;20058;-77
2021/05/14 11:42:50;;;;;;;0.63;0.32;;;;;;;20.24;38.92;99570.53;5010465;28;20052;-78
2021/05/14 11:45:21;;;;;;;7.97;1.65;;;;;;;20.37;39.79;99567.50;5017617;28;20138;-77
2021/05/14 11:47:54;;;;;;;2.95;0.63;;;;;;;20.27;39.15;99575.63;5014918;28;20069;-76
2021/05/14 11:50:31;;;;;;;1.05;0.40;;;;;;;19.89;39.84;99575.88;5008033;28;20153;-77
2021/05/14 11:53:00;;;;;;;1.25;0.52;;;;;;;19.51;39.55;99568.91;5011136;28;20070;-77
2021/05/14 11:55:28;;;;;;;1.67;0.45;;;;;;;19.23;41.14;99573.34;5014113;28;20109;-82